createdAt,value
2018-02-21T00:00:48.588Z,99.90
2018-02-21T00:03:17.728Z,99.90
2018-02-21T00:05:46.078Z,99.90
2018-02-21T00:08:14.426Z,99.90
2018-02-21T00:10:42.806Z,99.90
2018-02-21T00:13:11.330Z,99.90
2018-02-21T00:15:39.655Z,99.90
2018-02-21T00:18:08.005Z,99.90
2018-02-21T00:20:37.936Z,99.90
2018-02-21T00:23:06.276Z,99.90
2018-02-21T00:25:34.848Z,99.90
2018-02-21T00:28:03.256Z,99.90
2018-02-21T00:30:31.608Z,99.90
2018-02-21T00:33:00.078Z,99.90
2018-02-21T00:35:29.167Z,99.90
2018-02-21T00:37:58.299Z,99.90
2018-02-21T00:40:26.898Z,99.90
2018-02-21T00:42:55.221Z,99.90
2018-02-21T00:45:23.574Z,99.90
2018-02-21T00:47:52.015Z,99.90
2018-02-21T00:50:21.004Z,99.90
2018-02-21T00:52:49.344Z,99.90
2018-02-21T00:55:17.729Z,99.90
2018-02-21T00:57:46.841Z,99.90
2018-02-21T01:00:15.992Z,99.90
2018-02-21T01:02:44.337Z,99.90
2018-02-21T01:05:12.680Z,99.90
2018-02-21T01:07:41.829Z,99.90
2018-02-21T01:10:10.181Z,99.90
2018-02-21T01:12:38.555Z,99.90
2018-02-21T01:15:07.670Z,99.90
2018-02-21T01:17:36.008Z,99.90
2018-02-21T01:20:04.359Z,99.90
2018-02-21T01:22:32.712Z,99.90
2018-02-21T01:25:01.091Z,99.90
2018-02-21T01:27:29.529Z,99.90
2018-02-21T01:29:58.653Z,99.90
2018-02-21T01:32:27.071Z,99.90
2018-02-21T01:34:55.426Z,99.90
2018-02-21T01:37:23.780Z,99.90
2018-02-21T01:39:52.144Z,99.90
2018-02-21T01:42:20.498Z,99.90
2018-02-21T01:44:48.881Z,99.90
2018-02-21T01:47:17.220Z,99.90
2018-02-21T01:49:45.564Z,99.90
2018-02-21T01:52:14.692Z,99.90
2018-02-21T01:54:43.072Z,99.90
2018-02-21T01:57:11.426Z,99.90
2018-02-21T01:59:40.551Z,99.90
2018-02-21T02:02:08.896Z,99.90
2018-02-21T02:04:38.042Z,99.90
2018-02-21T02:07:06.373Z,99.90
2018-02-21T02:09:35.489Z,99.90
2018-02-21T02:12:03.842Z,99.90
2018-02-21T02:14:32.957Z,99.90
2018-02-21T02:17:01.363Z,99.90
2018-02-21T02:19:29.699Z,99.90
2018-02-21T02:21:58.872Z,99.90
2018-02-21T02:24:27.221Z,99.90
2018-02-21T02:26:56.280Z,99.90
2018-02-21T02:29:25.392Z,99.90
2018-02-21T02:31:53.800Z,99.90
2018-02-21T02:34:22.131Z,99.90
2018-02-21T02:36:51.107Z,99.90
2018-02-21T02:42:21.413Z,99.90
2018-02-21T02:44:49.880Z,99.90
2018-02-21T02:47:18.301Z,99.90
2018-02-21T02:49:46.736Z,99.90
2018-02-21T02:52:15.703Z,99.90
2018-02-21T02:54:44.812Z,99.90
2018-02-21T02:57:13.174Z,99.90
2018-02-21T02:59:41.510Z,99.90
2018-02-21T03:02:09.963Z,99.90
2018-02-21T03:04:38.325Z,99.90
2018-02-21T03:07:07.432Z,99.90
2018-02-21T03:09:35.839Z,99.90
2018-02-21T03:12:04.213Z,99.90
2018-02-21T03:14:32.600Z,99.90
2018-02-21T03:17:00.948Z,99.90
2018-02-21T03:19:29.894Z,99.90
2018-02-21T03:21:58.292Z,99.90
2018-02-21T03:24:26.632Z,99.90
2018-02-21T03:26:55.991Z,99.90
2018-02-21T03:29:25.102Z,99.90
2018-02-21T03:31:53.511Z,99.90
2018-02-21T03:34:21.848Z,99.90
2018-02-21T03:36:50.968Z,99.90
2018-02-21T03:39:19.342Z,99.90
2018-02-21T03:41:47.741Z,99.90
2018-02-21T03:44:16.096Z,99.90
2018-02-21T03:46:44.474Z,99.90
2018-02-21T03:49:12.835Z,99.90
2018-02-21T03:51:41.947Z,99.90
2018-02-21T03:54:10.360Z,99.90
2018-02-21T03:56:38.716Z,99.90
2018-02-21T03:59:07.057Z,99.90
2018-02-21T04:01:36.191Z,99.90
2018-02-21T04:04:04.530Z,99.90
2018-02-21T04:06:33.661Z,99.90
2018-02-21T04:09:02.009Z,99.90
2018-02-21T04:11:30.384Z,99.90
2018-02-21T04:13:58.731Z,99.90
2018-02-21T04:16:27.083Z,99.90
2018-02-21T04:19:00.404Z,99.90
2018-02-21T04:21:28.740Z,99.90
2018-02-21T04:23:57.091Z,99.90
2018-02-21T04:26:25.440Z,99.90
2018-02-21T04:28:53.795Z,99.90
2018-02-21T04:31:22.152Z,99.90
2018-02-21T04:33:51.372Z,99.90
2018-02-21T04:36:19.731Z,99.90
2018-02-21T04:38:48.072Z,99.90
2018-02-21T04:41:16.419Z,99.90
2018-02-21T04:43:45.305Z,99.90
2018-02-21T04:46:13.657Z,99.90
2018-02-21T04:48:42.004Z,99.90
2018-02-21T04:51:10.380Z,99.90
2018-02-21T04:53:38.727Z,99.90
2018-02-21T04:56:13.159Z,99.90
2018-02-21T04:58:58.158Z,99.90
2018-02-21T05:01:27.604Z,99.90
2018-02-21T05:03:55.957Z,99.90
2018-02-21T05:06:24.305Z,99.90
2018-02-21T05:08:53.468Z,99.90
2018-02-21T05:11:21.816Z,99.90
2018-02-21T05:13:50.185Z,99.90
2018-02-21T05:16:19.303Z,99.90
2018-02-21T05:18:47.653Z,99.90
2018-02-21T05:21:16.045Z,99.90
2018-02-21T05:23:45.153Z,99.90
2018-02-21T05:26:13.532Z,99.90
2018-02-21T05:28:41.875Z,99.90
2018-02-21T05:31:10.207Z,99.90
2018-02-21T05:33:38.579Z,99.90
2018-02-21T05:36:06.933Z,99.90
2018-02-21T05:38:35.343Z,99.90
2018-02-21T05:41:03.689Z,99.90
2018-02-21T05:43:32.820Z,99.90
2018-02-21T05:46:01.303Z,99.90
2018-02-21T05:48:29.677Z,99.90
2018-02-21T05:50:58.070Z,99.90
2018-02-21T05:53:26.412Z,99.90
2018-02-21T05:55:55.588Z,99.90
2018-02-21T05:58:23.923Z,99.90
2018-02-21T06:00:52.392Z,99.90
2018-02-21T06:03:20.741Z,99.90
2018-02-21T06:05:49.856Z,99.90
2018-02-21T06:08:18.330Z,99.90
2018-02-21T06:10:47.440Z,99.90
2018-02-21T06:13:15.832Z,99.90
2018-02-21T06:15:44.208Z,99.90
2018-02-21T06:18:12.563Z,99.90
2018-02-21T06:20:41.700Z,99.90
2018-02-21T06:23:10.072Z,99.90
2018-02-21T06:25:38.443Z,99.90
2018-02-21T06:28:06.792Z,99.90
2018-02-21T06:30:35.957Z,99.90
2018-02-21T06:33:04.360Z,99.90
2018-02-21T06:35:32.837Z,99.90
2018-02-21T06:38:01.318Z,99.90
2018-02-21T06:40:29.829Z,99.90
2018-02-21T06:42:59.103Z,99.90
2018-02-21T06:45:27.605Z,99.90
2018-02-21T06:47:56.772Z,99.90
2018-02-21T06:50:25.208Z,99.90
2018-02-21T06:52:53.592Z,99.90
2018-02-21T06:55:22.584Z,99.90
2018-02-21T06:57:50.960Z,99.90
2018-02-21T07:00:19.341Z,99.90
2018-02-21T07:02:47.685Z,99.90
2018-02-21T07:05:16.808Z,99.90
2018-02-21T07:07:45.157Z,99.90
2018-02-21T07:10:15.004Z,99.90
2018-02-21T07:12:43.343Z,99.90
2018-02-21T07:15:12.137Z,99.90
2018-02-21T07:17:40.481Z,99.90
2018-02-21T07:20:08.832Z,99.90
2018-02-21T07:22:37.189Z,99.90
2018-02-21T07:25:05.528Z,99.90
2018-02-21T07:27:33.872Z,99.90
2018-02-21T07:30:02.221Z,99.90
2018-02-21T07:32:31.353Z,99.90
2018-02-21T07:34:59.762Z,99.90
2018-02-21T07:37:28.208Z,99.90
2018-02-21T07:39:56.556Z,99.90
2018-02-21T07:42:24.914Z,99.90
2018-02-21T07:44:53.264Z,99.90
2018-02-21T07:47:21.613Z,99.90
2018-02-21T07:49:50.089Z,99.90
2018-02-21T07:52:18.428Z,99.90
2018-02-21T07:54:46.772Z,99.90
2018-02-21T07:57:15.145Z,99.90
2018-02-21T07:59:43.582Z,99.90
2018-02-21T08:02:12.703Z,99.90
2018-02-21T08:04:41.052Z,99.90
2018-02-21T08:07:10.189Z,99.90
2018-02-21T08:09:38.682Z,99.90
2018-02-21T08:12:07.038Z,99.90
2018-02-21T08:14:35.428Z,99.90
2018-02-21T08:17:03.785Z,99.90
2018-02-21T08:19:33.021Z,99.90
2018-02-21T08:22:01.363Z,99.90
2018-02-21T08:24:29.733Z,99.90
2018-02-21T08:26:58.872Z,99.90
2018-02-21T08:29:27.298Z,99.90
2018-02-21T08:31:55.652Z,99.90
2018-02-21T08:34:24.005Z,99.90
2018-02-21T08:36:52.363Z,99.90
2018-02-21T08:39:20.754Z,99.60
2018-02-21T08:41:49.129Z,99.50
2018-02-21T08:44:17.484Z,99.00
2018-02-21T08:46:45.816Z,99.10
2018-02-21T08:49:14.282Z,99.00
2018-02-21T08:51:42.624Z,98.50
2018-02-21T08:54:11.728Z,97.70
2018-02-21T08:56:40.831Z,97.80
2018-02-21T08:59:09.533Z,97.80
2018-02-21T09:01:37.911Z,97.80
2018-02-21T09:04:06.258Z,97.50
2018-02-21T09:06:34.645Z,96.80
2018-02-21T09:09:02.936Z,97.00
2018-02-21T09:11:31.289Z,97.10
2018-02-21T09:14:00.417Z,96.10
2018-02-21T09:16:28.802Z,96.10
2018-02-21T09:18:57.137Z,96.50
2018-02-21T09:21:25.668Z,96.70
2018-02-21T09:23:54.040Z,96.90
2018-02-21T09:26:22.397Z,97.30
2018-02-21T09:28:51.502Z,97.40
2018-02-21T09:31:19.924Z,97.40
2018-02-21T09:33:48.290Z,97.70
2018-02-21T09:36:16.817Z,98.10
2018-02-21T09:38:45.247Z,98.30
2018-02-21T09:41:13.581Z,98.40
2018-02-21T09:43:42.716Z,97.90
2018-02-21T09:46:11.100Z,97.90
2018-02-21T09:48:39.436Z,98.40
2018-02-21T09:51:08.888Z,98.30
2018-02-21T09:53:37.233Z,98.30
2018-02-21T09:56:06.342Z,97.70
2018-02-21T09:58:34.742Z,97.70
2018-02-21T10:01:03.112Z,97.00
2018-02-21T10:03:31.492Z,96.80
2018-02-21T10:05:59.862Z,96.50
2018-02-21T10:08:28.228Z,96.10
2018-02-21T10:10:56.585Z,96.10
2018-02-21T10:13:25.099Z,96.00
2018-02-21T10:15:53.498Z,95.80
2018-02-21T10:18:21.852Z,95.50
2018-02-21T10:20:51.060Z,95.30
2018-02-21T10:23:19.391Z,95.30
2018-02-21T10:25:47.778Z,95.30
2018-02-21T10:28:16.204Z,95.20
2018-02-21T10:30:44.549Z,95.10
2018-02-21T10:33:13.663Z,94.90
2018-02-21T10:35:41.999Z,94.90
2018-02-21T10:38:10.441Z,94.80
2018-02-21T10:40:38.977Z,94.90
2018-02-21T10:43:07.349Z,95.00
2018-02-21T10:45:35.699Z,94.90
2018-02-21T10:48:04.053Z,94.60
2018-02-21T10:50:32.392Z,95.00
2018-02-21T10:53:00.822Z,94.40
2018-02-21T10:55:29.206Z,93.90
2018-02-21T10:57:57.774Z,93.90
2018-02-21T11:00:31.688Z,93.50
2018-02-21T11:03:00.082Z,92.90
2018-02-21T11:05:28.437Z,93.20
2018-02-21T11:07:56.763Z,93.20
2018-02-21T11:10:25.212Z,93.30
2018-02-21T11:12:54.183Z,92.40
2018-02-21T11:15:22.568Z,92.20
2018-02-21T11:17:50.985Z,91.90
2018-02-21T11:20:19.303Z,91.90
2018-02-21T11:22:48.446Z,91.60
2018-02-21T11:25:16.767Z,91.50
2018-02-21T11:27:45.137Z,90.80
2018-02-21T11:30:13.505Z,89.70
2018-02-21T11:32:41.851Z,87.20
2018-02-21T11:35:10.224Z,84.60
2018-02-21T11:37:38.609Z,83.80
2018-02-21T11:40:07.000Z,82.90
2018-02-21T11:42:35.320Z,77.90
2018-02-21T11:45:03.744Z,75.00
2018-02-21T11:47:32.132Z,71.60
2018-02-21T11:50:00.471Z,65.20
2018-02-21T11:52:29.579Z,66.60
2018-02-21T11:54:58.692Z,62.30
2018-02-21T11:57:27.065Z,61.80
2018-02-21T11:59:55.648Z,62.60
2018-02-21T12:02:23.992Z,59.60
2018-02-21T12:04:52.382Z,59.60
2018-02-21T12:07:20.699Z,57.90
2018-02-21T12:09:49.072Z,53.90
2018-02-21T12:12:17.425Z,54.60
2018-02-21T12:14:46.554Z,55.80
2018-02-21T12:17:14.928Z,55.60
2018-02-21T12:19:43.420Z,53.30
2018-02-21T12:22:11.762Z,50.60
2018-02-21T12:24:40.900Z,47.40
2018-02-21T12:27:09.339Z,47.50
2018-02-21T12:29:38.457Z,46.20
2018-02-21T12:32:06.836Z,46.10
2018-02-21T12:34:35.166Z,47.40
2018-02-21T12:37:03.516Z,45.90
2018-02-21T12:39:36.505Z,45.80
2018-02-21T12:42:04.861Z,45.80
2018-02-21T12:44:33.240Z,46.10
2018-02-21T12:47:01.704Z,47.10
2018-02-21T12:49:30.088Z,42.60
2018-02-21T12:51:58.440Z,42.10
2018-02-21T12:54:26.873Z,40.30
2018-02-21T12:56:55.237Z,42.50
2018-02-21T12:59:23.598Z,41.70
2018-02-21T13:01:52.724Z,43.70
2018-02-21T13:04:21.116Z,43.70
2018-02-21T13:06:49.584Z,43.40
2018-02-21T13:09:17.920Z,43.80
2018-02-21T13:11:47.929Z,45.30
2018-02-21T13:14:16.367Z,45.40
2018-02-21T13:16:44.953Z,45.20
2018-02-21T13:19:13.297Z,45.10
2018-02-21T13:21:41.627Z,45.30
2018-02-21T13:24:10.008Z,46.30
2018-02-21T13:26:38.960Z,47.90
2018-02-21T13:29:07.301Z,48.90
2018-02-21T13:31:35.726Z,52.20
2018-02-21T13:34:04.125Z,55.00
2018-02-21T13:36:32.467Z,56.50
2018-02-21T13:39:00.826Z,57.40
2018-02-21T13:41:29.368Z,58.50
2018-02-21T13:43:57.701Z,59.10
2018-02-21T13:46:26.803Z,59.80
2018-02-21T13:48:55.157Z,59.70
2018-02-21T13:51:23.492Z,60.40
2018-02-21T13:53:51.858Z,61.80
2018-02-21T13:56:20.208Z,64.70
2018-02-21T13:58:49.339Z,67.30
2018-02-21T14:01:17.692Z,67.30
2018-02-21T14:03:46.789Z,71.10
2018-02-21T14:06:15.164Z,71.00
2018-02-21T14:08:44.401Z,71.60
2018-02-21T14:11:12.745Z,71.60
2018-02-21T14:13:41.241Z,73.00
2018-02-21T14:16:09.733Z,73.20
2018-02-21T14:18:38.080Z,73.80
2018-02-21T14:21:06.429Z,73.50
2018-02-21T14:23:34.780Z,74.20
2018-02-21T14:26:03.269Z,74.00
2018-02-21T14:28:31.653Z,73.20
2018-02-21T14:31:00.012Z,73.00
2018-02-21T14:33:28.373Z,72.60
2018-02-21T14:35:56.736Z,73.00
2018-02-21T14:38:25.165Z,72.80
2018-02-21T14:40:53.503Z,73.50
2018-02-21T14:43:21.857Z,73.60
2018-02-21T14:45:50.193Z,74.70
2018-02-21T14:48:18.536Z,75.30
2018-02-21T14:50:46.899Z,76.20
2018-02-21T14:53:16.328Z,76.30
2018-02-21T14:55:44.661Z,76.20
2018-02-21T14:58:13.015Z,76.30
2018-02-21T15:00:41.354Z,76.60
2018-02-21T15:03:10.473Z,78.90
2018-02-21T15:05:38.814Z,78.80
2018-02-21T15:08:07.187Z,78.90
2018-02-21T15:10:36.360Z,79.20
2018-02-21T15:13:04.709Z,79.80
2018-02-21T15:15:33.070Z,80.00
2018-02-21T15:18:02.173Z,80.80
2018-02-21T15:20:30.550Z,80.80
2018-02-21T15:22:58.892Z,81.00
2018-02-21T15:25:27.418Z,81.40
2018-02-21T15:27:55.740Z,81.90
2018-02-21T15:30:24.087Z,81.90
2018-02-21T15:32:52.442Z,82.10
2018-02-21T15:35:20.838Z,82.60
2018-02-21T15:37:49.164Z,82.60
2018-02-21T15:40:17.498Z,82.60
2018-02-21T15:42:45.897Z,83.00
2018-02-21T15:45:14.301Z,82.90
2018-02-21T15:47:42.606Z,82.10
2018-02-21T15:50:11.004Z,82.10
2018-02-21T15:52:39.341Z,82.50
2018-02-21T15:55:07.693Z,83.00
2018-02-21T15:57:36.023Z,83.50
2018-02-21T16:00:04.372Z,83.60
2018-02-21T16:02:32.821Z,82.10
2018-02-21T16:05:01.299Z,81.80
2018-02-21T16:07:29.640Z,82.20
2018-02-21T16:09:58.773Z,82.90
2018-02-21T16:12:27.115Z,82.90
2018-02-21T16:14:56.216Z,83.70
2018-02-21T16:17:24.586Z,83.60
2018-02-21T16:19:53.732Z,83.10
2018-02-21T16:22:22.048Z,83.10
2018-02-21T16:24:50.416Z,83.40
2018-02-21T16:27:18.743Z,84.10
2018-02-21T16:29:47.471Z,84.30
2018-02-21T16:32:15.809Z,84.50
2018-02-21T16:34:44.141Z,84.50
2018-02-21T16:37:12.599Z,84.60
2018-02-21T16:39:40.968Z,84.70
2018-02-21T16:42:09.349Z,84.90
2018-02-21T16:44:37.794Z,85.20
2018-02-21T16:47:06.899Z,85.50
2018-02-21T16:49:35.250Z,85.50
2018-02-21T16:52:03.725Z,86.20
2018-02-21T16:54:32.111Z,86.90
2018-02-21T16:57:00.538Z,87.50
2018-02-21T16:59:28.885Z,87.80
2018-02-21T17:01:59.818Z,88.00
2018-02-21T17:04:28.946Z,88.10
2018-02-21T17:06:57.351Z,88.00
2018-02-21T17:09:25.700Z,88.10
2018-02-21T17:11:54.124Z,87.80
2018-02-21T17:14:22.542Z,87.80
2018-02-21T17:16:50.935Z,87.80
2018-02-21T17:19:19.289Z,87.90
2018-02-21T17:21:48.486Z,87.80
2018-02-21T17:24:16.936Z,87.80
2018-02-21T17:26:45.271Z,87.90
2018-02-21T17:29:13.615Z,87.90
2018-02-21T17:31:41.959Z,88.00
2018-02-21T17:34:10.316Z,88.10
2018-02-21T17:36:38.701Z,88.30
2018-02-21T17:39:07.101Z,88.20
2018-02-21T17:41:35.498Z,88.10
2018-02-21T17:44:03.878Z,88.20
2018-02-21T17:46:32.188Z,88.20
2018-02-21T17:49:00.539Z,88.30
2018-02-21T17:51:28.970Z,88.30
2018-02-21T17:53:57.824Z,88.40
2018-02-21T17:56:26.951Z,88.80
2018-02-21T17:58:55.364Z,88.70
2018-02-21T18:01:23.839Z,89.00
2018-02-21T18:03:52.189Z,89.50
2018-02-21T18:06:20.592Z,89.70
2018-02-21T18:08:48.924Z,89.80
2018-02-21T18:11:18.036Z,89.80
2018-02-21T18:13:46.393Z,89.70
2018-02-21T18:16:15.516Z,90.00
2018-02-21T18:18:43.919Z,90.00
2018-02-21T18:21:18.034Z,90.10
2018-02-21T18:23:46.522Z,90.10
2018-02-21T18:26:14.933Z,90.10
2018-02-21T18:28:43.273Z,90.20
2018-02-21T18:31:11.623Z,90.30
2018-02-21T18:33:40.015Z,90.40
2018-02-21T18:36:08.402Z,90.40
2018-02-21T18:38:36.778Z,90.50
2018-02-21T18:41:05.155Z,91.00
2018-02-21T18:43:33.500Z,90.80
2018-02-21T18:46:03.344Z,91.00
2018-02-21T18:48:31.792Z,91.00
2018-02-21T18:51:00.902Z,90.80
2018-02-21T18:53:30.264Z,90.80
2018-02-21T18:55:58.723Z,90.80
2018-02-21T18:58:27.080Z,90.80
2018-02-21T19:00:55.998Z,90.90
2018-02-21T19:03:24.377Z,90.90
2018-02-21T19:05:53.887Z,91.00
2018-02-21T19:08:22.365Z,91.10
2018-02-21T19:10:50.962Z,91.20
2018-02-21T19:13:19.309Z,91.30
2018-02-21T19:15:47.680Z,91.40
2018-02-21T19:18:16.956Z,91.40
2018-02-21T19:20:45.396Z,91.50
2018-02-21T19:23:14.069Z,91.60
2018-02-21T19:25:42.394Z,91.70
2018-02-21T19:28:10.822Z,91.60
2018-02-21T19:30:39.162Z,91.70
2018-02-21T19:33:08.202Z,91.80
2018-02-21T19:35:36.683Z,91.80
2018-02-21T19:38:05.044Z,92.00
2018-02-21T19:40:33.806Z,92.10
2018-02-21T19:43:02.291Z,92.30
2018-02-21T19:45:30.942Z,92.50
2018-02-21T19:47:59.597Z,92.30
2018-02-21T19:50:28.675Z,92.20
2018-02-21T19:52:57.109Z,92.10
2018-02-21T19:55:25.460Z,92.00
2018-02-21T19:57:53.825Z,92.00
2018-02-21T20:00:22.177Z,92.20
2018-02-21T20:02:50.552Z,92.30
2018-02-21T20:05:18.920Z,92.70
2018-02-21T20:07:48.061Z,93.30
2018-02-21T20:10:16.669Z,93.10
2018-02-21T20:12:45.030Z,93.30
2018-02-21T20:15:13.402Z,93.50
2018-02-21T20:17:41.763Z,93.60
2018-02-21T20:20:10.194Z,93.80
2018-02-21T20:22:38.582Z,94.00
2018-02-21T20:25:07.065Z,94.20
2018-02-21T20:27:35.545Z,94.40
2018-02-21T20:30:03.940Z,94.40
2018-02-21T20:32:33.201Z,94.40
2018-02-21T20:35:01.557Z,94.70
2018-02-21T20:37:29.913Z,95.00
2018-02-21T20:39:58.411Z,95.00
2018-02-21T20:42:26.792Z,95.20
2018-02-21T20:44:55.437Z,95.30
2018-02-21T20:47:23.815Z,95.00
2018-02-21T20:49:52.265Z,95.50
2018-02-21T20:52:20.717Z,95.50
2018-02-21T20:54:49.210Z,95.70
2018-02-21T20:57:17.722Z,95.80
2018-02-21T20:59:46.169Z,95.80
2018-02-21T21:02:14.534Z,96.20
2018-02-21T21:04:42.925Z,96.80
2018-02-21T21:07:11.271Z,96.90
2018-02-21T21:09:40.414Z,96.60
2018-02-21T21:12:08.775Z,96.60
2018-02-21T21:14:37.132Z,96.60
2018-02-21T21:17:06.260Z,96.30
2018-02-21T21:19:36.091Z,96.30
2018-02-21T21:22:04.456Z,96.40
2018-02-21T21:24:32.885Z,96.30
2018-02-21T21:27:01.350Z,96.40
2018-02-21T21:29:29.794Z,96.40
2018-02-21T21:31:58.292Z,96.50
2018-02-21T21:34:26.657Z,96.40
2018-02-21T21:36:55.045Z,96.50
2018-02-21T21:39:23.421Z,96.70
2018-02-21T21:41:51.805Z,96.70
2018-02-21T21:44:20.169Z,96.60
2018-02-21T21:46:48.521Z,96.80
2018-02-21T21:49:17.651Z,96.90
2018-02-21T21:51:46.059Z,96.90
2018-02-21T21:54:14.700Z,97.00
2018-02-21T21:56:43.102Z,97.00
2018-02-21T21:59:11.453Z,97.00
2018-02-21T22:01:39.835Z,97.20
2018-02-21T22:04:08.237Z,97.30
2018-02-21T22:06:36.576Z,97.60
2018-02-21T22:09:05.692Z,97.50
2018-02-21T22:11:34.089Z,97.40
2018-02-21T22:14:02.605Z,97.50
2018-02-21T22:16:30.968Z,97.60
2018-02-21T22:18:59.347Z,97.60
2018-02-21T22:21:27.725Z,97.60
2018-02-21T22:23:56.365Z,97.60
2018-02-21T22:26:24.783Z,97.40
2018-02-21T22:28:53.144Z,97.30
2018-02-21T22:31:21.679Z,97.40
2018-02-21T22:33:49.989Z,97.40
2018-02-21T22:36:19.106Z,97.60
2018-02-21T22:38:47.487Z,97.60
2018-02-21T22:41:15.850Z,97.60
2018-02-21T22:43:44.408Z,97.70
2018-02-21T22:46:13.541Z,98.00
2018-02-21T22:48:41.966Z,97.90
2018-02-21T22:51:10.428Z,98.00
2018-02-21T22:53:38.772Z,98.20
2018-02-21T22:56:07.881Z,98.30
2018-02-21T22:58:36.230Z,98.30
2018-02-21T23:01:05.363Z,98.40
2018-02-21T23:03:33.715Z,98.40
2018-02-21T23:06:02.119Z,98.60
2018-02-21T23:08:30.483Z,98.70
2018-02-21T23:10:58.849Z,98.60
2018-02-21T23:13:27.207Z,98.70
2018-02-21T23:15:56.320Z,99.10
2018-02-21T23:18:25.543Z,99.00
2018-02-21T23:20:53.938Z,99.00
2018-02-21T23:23:22.621Z,99.10
2018-02-21T23:25:50.965Z,99.20
2018-02-21T23:28:20.072Z,99.30
2018-02-21T23:30:48.543Z,99.20
2018-02-21T23:33:16.896Z,99.30
2018-02-21T23:35:45.253Z,99.50
2018-02-21T23:38:13.772Z,99.60
2018-02-21T23:40:42.197Z,99.60
2018-02-21T23:43:10.605Z,99.60
2018-02-21T23:45:38.941Z,99.60
2018-02-21T23:48:07.302Z,99.60
2018-02-21T23:50:35.648Z,99.50
2018-02-21T23:53:04.055Z,99.50
2018-02-21T23:55:33.154Z,99.50
2018-02-21T23:58:02.389Z,99.50
